KFAM/FAM METAR and TAF weather

Enter ICAO airport designator
Station Type Date Time Source
KFAM METAR 2019/06/18 04:54 UTC NOAA

KFAM 180454Z AUTO 00000KT 9SM FEW004 BKN085 19/19 A2996 RMK AO2


Station Type Date Time Source
KFAM Decoded METAR 2019/06/18 04:54 UTC NOAA

Farmington Airport, MO, United States (KFAM) 37-46N 090-26W
Jun 18, 2019 - 12:54 AM EDT / 2019.06.18 0454 UTC
Wind: Calm:0
Visibility: 9 mile(s):0
Sky conditions: mostly cloudy
Temperature: 66 F (19 C)
Dew Point: 66 F (19 C)
Relative Humidity: 100%
Pressure (altimeter): 29.96 in. Hg (1014 hPa)
ob: KFAM 180454Z AUTO 00000KT 9SM FEW004 BKN085 19/19 A2996 RMK AO2
cycle: 5

Station Type Date Time Source
KFAM TAF UTC NOAA

Error!

Example: see airport list